createdAt,value
2018-07-12T00:00:13.703Z,7.73
2018-07-12T00:02:41.465Z,7.27
2018-07-12T00:05:09.229Z,7.60
2018-07-12T00:07:36.992Z,7.60
2018-07-12T00:10:04.750Z,7.83
2018-07-12T00:12:32.313Z,7.80
2018-07-12T00:15:00.088Z,7.10
2018-07-12T00:17:27.851Z,7.70
2018-07-12T00:19:55.712Z,7.77
2018-07-12T00:22:23.478Z,8.30
2018-07-12T00:24:51.346Z,8.63
2018-07-12T00:27:19.109Z,9.90
2018-07-12T00:29:46.871Z,8.57
2018-07-12T00:32:14.636Z,9.03
2018-07-12T00:34:42.404Z,9.30
2018-07-12T00:37:10.273Z,9.63
2018-07-12T00:39:38.036Z,10.43
2018-07-12T00:42:06.007Z,9.40
2018-07-12T00:44:33.876Z,10.80
2018-07-12T00:47:02.035Z,9.83
2018-07-12T00:49:29.606Z,11.80
2018-07-12T00:51:57.482Z,13.07
2018-07-12T00:54:25.129Z,13.57
2018-07-12T00:56:53.109Z,14.53
2018-07-12T00:59:20.981Z,14.63
2018-07-12T01:01:48.840Z,14.90
2018-07-12T01:04:16.706Z,13.57
2018-07-12T01:06:44.573Z,16.17
2018-07-12T01:09:12.325Z,15.63
2018-07-12T01:11:40.002Z,15.90
2018-07-12T01:14:07.868Z,16.90
2018-07-12T01:16:35.735Z,16.57
2018-07-12T01:19:03.396Z,14.43
2018-07-12T01:21:31.225Z,16.90
2018-07-12T01:23:59.028Z,15.67
2018-07-12T01:26:26.790Z,15.47
2018-07-12T01:28:54.457Z,16.20
2018-07-12T01:31:22.322Z,16.83
2018-07-12T01:33:50.085Z,16.23
2018-07-12T01:36:17.954Z,16.00
2018-07-12T01:38:45.568Z,18.30
2018-07-12T01:41:13.335Z,16.60
2018-07-12T01:43:41.041Z,17.40
2018-07-12T01:46:08.908Z,15.50
2018-07-12T01:48:36.636Z,16.70
2018-07-12T01:51:04.354Z,16.80
2018-07-12T01:53:32.155Z,17.30
2018-07-12T01:56:00.080Z,17.10
2018-07-12T01:58:27.793Z,16.07
2018-07-12T02:00:55.598Z,16.57
2018-07-12T02:03:23.363Z,17.03
2018-07-12T02:05:51.231Z,16.40
2018-07-12T02:08:19.099Z,15.63
2018-07-12T02:10:46.866Z,13.57
2018-07-12T02:13:14.627Z,15.70
2018-07-12T02:15:42.291Z,14.80
2018-07-12T02:18:10.054Z,17.73
2018-07-12T02:20:37.818Z,16.10
2018-07-12T02:23:05.582Z,15.83
2018-07-12T02:25:33.358Z,15.60
2018-07-12T02:28:01.112Z,16.23
2018-07-12T02:30:28.979Z,17.30
2018-07-12T02:32:56.745Z,16.30
2018-07-12T02:35:24.571Z,17.07
2018-07-12T02:37:52.228Z,16.50
2018-07-12T02:40:20.037Z,18.47
2018-07-12T02:42:47.802Z,18.17
2018-07-12T02:45:15.563Z,17.17
2018-07-12T02:47:43.334Z,17.53
2018-07-12T02:50:10.962Z,17.40
2018-07-12T02:52:38.761Z,17.23
2018-07-12T02:55:06.523Z,17.73
2018-07-12T02:57:34.389Z,19.67
2018-07-12T03:00:02.153Z,18.30
2018-07-12T03:02:30.021Z,19.20
2018-07-12T03:04:57.888Z,18.30
2018-07-12T03:07:25.730Z,16.70
2018-07-12T03:09:53.521Z,17.57
2018-07-12T03:12:21.386Z,17.67
2018-07-12T03:14:49.254Z,15.10
2018-07-12T03:17:17.019Z,17.20
2018-07-12T03:19:44.782Z,17.67
2018-07-12T03:22:12.657Z,15.90
2018-07-12T03:24:40.467Z,18.03
2018-07-12T03:27:08.137Z,18.00
2018-07-12T03:29:35.840Z,16.57
2018-07-12T03:32:03.709Z,18.40
2018-07-12T03:34:31.574Z,16.27
2018-07-12T03:36:59.339Z,15.67
2018-07-12T03:39:27.107Z,15.77
2018-07-12T03:41:54.971Z,16.30
2018-07-12T03:44:22.768Z,16.20
2018-07-12T03:46:50.603Z,16.03
2018-07-12T03:49:18.174Z,14.17
2018-07-12T03:51:46.030Z,14.93
2018-07-12T03:54:13.693Z,14.37
2018-07-12T03:56:41.666Z,15.07
2018-07-12T03:59:09.533Z,15.97
2018-07-12T04:01:37.397Z,14.70
2018-07-12T04:04:05.058Z,15.13
2018-07-12T04:06:32.879Z,15.27
2018-07-12T04:09:00.590Z,16.50
2018-07-12T04:11:28.427Z,15.87
2018-07-12T04:13:56.114Z,15.77
2018-07-12T04:16:23.988Z,15.43
2018-07-12T04:18:51.748Z,13.50
2018-07-12T04:21:19.612Z,15.00
2018-07-12T04:23:47.381Z,14.53
2018-07-12T04:26:15.245Z,16.17
2018-07-12T04:28:42.855Z,15.40
2018-07-12T04:31:10.679Z,15.07
2018-07-12T04:33:38.467Z,15.50
2018-07-12T04:36:06.234Z,15.10
2018-07-12T04:38:33.895Z,14.43
2018-07-12T04:41:01.715Z,14.97
2018-07-12T04:43:29.423Z,15.30
2018-07-12T04:45:57.199Z,15.83
2018-07-12T04:48:25.129Z,14.07
2018-07-12T04:50:52.999Z,16.77
2018-07-12T04:53:20.758Z,15.83
2018-07-12T04:55:48.640Z,14.97
2018-07-12T04:58:16.592Z,15.90
2018-07-12T05:00:44.300Z,16.30
2018-07-12T05:03:12.119Z,15.60
2018-07-12T05:05:39.784Z,16.20
2018-07-12T05:08:07.617Z,14.83
2018-07-12T05:10:35.417Z,15.57
2018-07-12T05:13:03.112Z,15.00
2018-07-12T05:15:30.848Z,15.00
2018-07-12T05:17:58.667Z,16.57
2018-07-12T05:20:26.479Z,14.70
2018-07-12T05:22:54.200Z,15.87
2018-07-12T05:25:21.915Z,14.43
2018-07-12T05:27:49.876Z,15.23
2018-07-12T05:30:17.663Z,14.43
2018-07-12T05:32:45.503Z,15.20
2018-07-12T05:35:13.268Z,14.43
2018-07-12T05:37:42.819Z,13.70
2018-07-12T05:40:12.033Z,15.67
2018-07-12T05:42:41.388Z,13.97
2018-07-12T05:45:10.659Z,14.77
2018-07-12T05:47:39.976Z,14.37
2018-07-12T05:50:09.227Z,14.13
2018-07-12T05:52:38.499Z,13.33
2018-07-12T05:55:07.876Z,13.83
2018-07-12T05:57:37.394Z,15.60
2018-07-12T06:00:07.071Z,13.63
2018-07-12T06:02:36.428Z,13.53
2018-07-12T06:05:05.698Z,13.97
2018-07-12T06:07:35.134Z,13.83
2018-07-12T06:10:04.362Z,15.47
2018-07-12T06:12:33.714Z,13.40
2018-07-12T06:15:03.106Z,13.30
2018-07-12T06:17:32.338Z,11.90
2018-07-12T06:20:01.605Z,12.47
2018-07-12T06:22:30.899Z,13.97
2018-07-12T06:25:00.486Z,14.07
2018-07-12T06:27:29.828Z,13.43
2018-07-12T06:29:59.435Z,11.90
2018-07-12T06:32:28.836Z,14.37
2018-07-12T06:34:59.162Z,12.07
2018-07-12T06:37:28.781Z,12.40
2018-07-12T06:39:58.531Z,13.00
2018-07-12T06:42:28.169Z,12.70
2018-07-12T06:44:57.590Z,12.60
2018-07-12T06:47:26.766Z,11.43
2018-07-12T06:49:56.163Z,11.13
2018-07-12T06:52:25.382Z,11.80
2018-07-12T06:54:54.567Z,9.83
2018-07-12T06:57:23.870Z,9.87
2018-07-12T06:59:53.268Z,8.40
2018-07-12T07:02:23.232Z,8.47
2018-07-12T07:04:52.469Z,8.20
2018-07-12T07:07:21.802Z,8.00
2018-07-12T07:09:51.163Z,7.90
2018-07-12T07:12:20.391Z,7.57
2018-07-12T07:14:49.731Z,8.10
2018-07-12T07:17:19.010Z,7.60
2018-07-12T07:19:48.339Z,6.73
2018-07-12T07:22:17.594Z,7.37
2018-07-12T07:24:46.896Z,7.20
2018-07-12T07:27:16.106Z,6.80
2018-07-12T07:29:45.449Z,6.50
2018-07-12T07:32:14.721Z,6.63
2018-07-12T07:34:43.959Z,7.50
2018-07-12T07:37:13.222Z,6.77
2018-07-12T07:39:42.479Z,5.30
2018-07-12T07:42:11.812Z,5.10
2018-07-12T07:44:41.474Z,4.93
2018-07-12T07:47:10.814Z,5.30
2018-07-12T07:49:40.187Z,5.07
2018-07-12T07:52:10.168Z,4.60
2018-07-12T07:54:39.498Z,4.53
2018-07-12T07:57:08.789Z,4.00
2018-07-12T07:59:38.119Z,4.00
2018-07-12T08:02:07.929Z,3.27
2018-07-12T08:04:37.129Z,3.37
2018-07-12T08:07:06.499Z,3.63
2018-07-12T08:09:35.910Z,3.77
2018-07-12T08:12:05.139Z,4.70
2018-07-12T08:14:34.546Z,4.10
2018-07-12T08:17:03.876Z,4.27
2018-07-12T08:19:33.159Z,3.33
2018-07-12T08:22:09.831Z,3.80
2018-07-12T08:24:39.239Z,3.33
2018-07-12T08:27:08.509Z,3.27
2018-07-12T08:29:37.946Z,3.30
2018-07-12T08:32:07.229Z,3.53
2018-07-12T08:34:36.567Z,4.03
2018-07-12T08:37:05.880Z,3.33
2018-07-12T08:39:35.132Z,3.80
2018-07-12T08:42:04.449Z,3.60
2018-07-12T08:44:33.758Z,3.90
2018-07-12T08:47:02.909Z,4.13
2018-07-12T08:49:32.247Z,3.37
2018-07-12T08:52:01.482Z,3.60
2018-07-12T08:54:30.972Z,3.27
2018-07-12T08:57:00.199Z,3.50
2018-07-12T08:59:29.651Z,3.70
2018-07-12T09:01:58.923Z,3.30
2018-07-12T09:04:28.274Z,3.93
2018-07-12T09:06:57.529Z,3.20
2018-07-12T09:09:26.883Z,3.70
2018-07-12T09:11:56.273Z,3.87
2018-07-12T09:14:25.742Z,3.73
2018-07-12T09:16:55.031Z,3.80
2018-07-12T09:19:24.592Z,3.73
2018-07-12T09:21:53.932Z,4.03
2018-07-12T09:24:23.197Z,3.60
2018-07-12T09:26:52.433Z,3.80
2018-07-12T09:29:21.867Z,3.83
2018-07-12T09:31:51.227Z,3.90
2018-07-12T09:34:20.534Z,4.10
2018-07-12T09:36:49.733Z,3.73
2018-07-12T09:39:18.968Z,3.90
2018-07-12T09:41:48.349Z,4.17
2018-07-12T09:44:17.679Z,4.10
2018-07-12T09:46:47.142Z,3.30
2018-07-12T09:49:16.519Z,4.13
2018-07-12T09:51:45.675Z,3.67
2018-07-12T09:54:14.977Z,3.77
2018-07-12T09:56:55.224Z,2.97
2018-07-12T09:59:24.522Z,3.07
2018-07-12T10:01:58.847Z,3.30
2018-07-12T10:04:28.869Z,3.30
2018-07-12T10:07:03.488Z,3.60
2018-07-12T10:09:37.588Z,4.90
2018-07-12T10:12:11.941Z,3.10
2018-07-12T10:14:46.264Z,3.67
2018-07-12T10:17:20.651Z,3.10
2018-07-12T10:19:50.012Z,3.50
2018-07-12T10:22:19.234Z,3.50
2018-07-12T10:24:48.754Z,3.23
2018-07-12T10:27:18.218Z,3.10
2018-07-12T10:29:47.720Z,3.30
2018-07-12T10:32:16.958Z,4.10
2018-07-12T10:34:46.527Z,3.70
2018-07-12T10:37:15.744Z,3.70
2018-07-12T10:39:44.989Z,4.10
2018-07-12T10:42:14.291Z,3.40
2018-07-12T10:44:43.795Z,3.47
2018-07-12T10:47:13.073Z,3.63
2018-07-12T10:49:42.393Z,3.23
2018-07-12T10:52:11.683Z,2.80
2018-07-12T10:54:41.913Z,2.63
2018-07-12T10:57:11.167Z,2.50
2018-07-12T10:59:40.325Z,3.37
2018-07-12T11:02:09.453Z,2.93
2018-07-12T11:04:38.437Z,2.80
2018-07-12T11:07:07.774Z,3.30
2018-07-12T11:09:36.777Z,2.10
2018-07-12T11:12:05.690Z,2.37
2018-07-12T11:14:35.090Z,2.77
2018-07-12T11:17:04.473Z,2.30
2018-07-12T11:19:33.807Z,2.20
2018-07-12T11:22:03.059Z,2.40
2018-07-12T11:24:32.301Z,2.30
2018-07-12T11:27:01.546Z,2.30
2018-07-12T11:29:41.945Z,2.73
2018-07-12T11:32:11.194Z,2.43
2018-07-12T11:34:40.554Z,2.40
2018-07-12T11:37:11.051Z,2.40
2018-07-12T11:39:40.275Z,2.70
2018-07-12T11:42:09.654Z,2.33
2018-07-12T11:44:39.332Z,2.37
2018-07-12T11:47:08.670Z,2.43
2018-07-12T11:49:37.885Z,2.23
2018-07-12T11:52:07.157Z,2.07
2018-07-12T11:54:36.804Z,2.40
2018-07-12T11:57:05.992Z,2.27
2018-07-12T11:59:35.301Z,2.27
2018-07-12T12:02:04.598Z,2.57
2018-07-12T12:04:33.798Z,2.50
2018-07-12T12:07:03.054Z,2.60
2018-07-12T12:09:32.290Z,2.77
2018-07-12T12:12:01.584Z,2.57
2018-07-12T12:14:30.788Z,2.47
2018-07-12T12:17:00.190Z,2.80
2018-07-12T12:19:29.638Z,2.47
2018-07-12T12:21:59.711Z,2.50
2018-07-12T12:24:29.127Z,2.37
2018-07-12T12:26:58.446Z,2.53
2018-07-12T12:29:27.789Z,2.50
2018-07-12T12:31:57.030Z,2.50
2018-07-12T12:34:26.325Z,2.73
2018-07-12T12:36:55.620Z,2.37
2018-07-12T12:39:24.778Z,2.60
2018-07-12T12:41:54.047Z,2.87
2018-07-12T12:44:23.390Z,2.80
2018-07-12T12:46:55.357Z,2.57
2018-07-12T12:49:24.470Z,2.97
2018-07-12T12:51:54.070Z,3.60
2018-07-12T12:54:23.245Z,2.13
2018-07-12T12:56:52.367Z,3.37
2018-07-12T12:59:21.683Z,2.80
2018-07-12T13:01:51.053Z,2.90
2018-07-12T13:04:20.289Z,2.60
2018-07-12T13:06:49.709Z,3.23
2018-07-12T13:09:19.057Z,2.70
2018-07-12T13:11:48.335Z,2.67
2018-07-12T13:14:17.819Z,3.00
2018-07-12T13:16:47.194Z,2.50
2018-07-12T13:19:16.362Z,2.87
2018-07-12T13:21:45.699Z,2.80
2018-07-12T13:24:15.170Z,2.83
2018-07-12T13:26:44.398Z,2.97
2018-07-12T13:29:13.698Z,2.63
2018-07-12T13:31:43.265Z,3.30
2018-07-12T13:34:12.471Z,2.93
2018-07-12T13:36:41.877Z,2.77
2018-07-12T13:39:11.337Z,3.13
2018-07-12T13:41:40.722Z,4.57
2018-07-12T13:44:17.395Z,3.37
2018-07-12T13:46:47.470Z,2.90
2018-07-12T13:49:17.050Z,4.13
2018-07-12T13:51:47.765Z,3.17
2018-07-12T13:54:17.474Z,3.60
2018-07-12T13:56:47.095Z,2.90
2018-07-12T13:59:16.347Z,3.23
2018-07-12T14:01:45.686Z,3.30
2018-07-12T14:04:14.851Z,3.13
2018-07-12T14:06:44.083Z,3.20
2018-07-12T14:09:14.057Z,3.40
2018-07-12T14:11:43.117Z,3.40
2018-07-12T14:14:12.102Z,3.00
2018-07-12T14:16:41.462Z,3.40
2018-07-12T14:19:10.788Z,2.97
2018-07-12T14:21:40.074Z,3.37
2018-07-12T14:24:09.372Z,3.27
2018-07-12T14:26:38.773Z,2.67
2018-07-12T14:29:08.025Z,3.00
2018-07-12T14:31:37.289Z,3.37
2018-07-12T14:34:06.525Z,3.10
2018-07-12T14:36:35.767Z,2.93
2018-07-12T14:39:06.044Z,2.80
2018-07-12T14:41:35.315Z,3.40
2018-07-12T14:44:04.671Z,3.13
2018-07-12T14:46:34.586Z,3.00
2018-07-12T14:49:03.866Z,2.97
2018-07-12T14:51:33.216Z,3.20
2018-07-12T14:54:02.463Z,3.00
2018-07-12T14:56:31.716Z,3.50
2018-07-12T14:59:01.089Z,2.93
2018-07-12T15:01:30.351Z,3.57
2018-07-12T15:03:59.619Z,3.20
2018-07-12T15:06:29.025Z,3.20
2018-07-12T15:08:58.534Z,3.00
2018-07-12T15:11:27.743Z,3.37
2018-07-12T15:13:57.115Z,2.90
2018-07-12T15:16:26.546Z,2.90
2018-07-12T15:18:55.795Z,3.10
2018-07-12T15:21:25.036Z,3.17
2018-07-12T15:23:54.299Z,3.07
2018-07-12T15:26:23.572Z,3.23
2018-07-12T15:28:52.882Z,3.43
2018-07-12T15:31:22.255Z,3.10
2018-07-12T15:33:51.485Z,2.97
2018-07-12T15:36:20.836Z,2.90
2018-07-12T15:38:50.084Z,3.90
2018-07-12T15:41:19.326Z,2.83
2018-07-12T15:43:48.627Z,3.03
2018-07-12T15:46:17.927Z,2.70
2018-07-12T15:48:47.188Z,3.40
2018-07-12T15:51:16.541Z,3.50
2018-07-12T15:53:46.010Z,3.23
2018-07-12T15:56:15.343Z,3.57
2018-07-12T15:58:44.740Z,3.30
2018-07-12T16:01:14.161Z,4.43
2018-07-12T16:03:43.414Z,4.23
2018-07-12T16:06:12.663Z,3.80
2018-07-12T16:08:42.034Z,4.03
2018-07-12T16:11:11.217Z,3.87
2018-07-12T16:13:40.563Z,3.27
2018-07-12T16:16:09.920Z,3.77
2018-07-12T16:18:39.262Z,4.40
2018-07-12T16:21:08.622Z,3.53
2018-07-12T16:23:37.846Z,4.03
2018-07-12T16:26:07.108Z,3.70
2018-07-12T16:28:36.358Z,4.20
2018-07-12T16:31:05.703Z,4.20
2018-07-12T16:33:34.950Z,4.10
2018-07-12T16:36:04.323Z,4.30
2018-07-12T16:38:33.655Z,4.50
2018-07-12T16:41:02.970Z,4.37
2018-07-12T16:43:32.334Z,4.20
2018-07-12T16:46:01.508Z,4.77
2018-07-12T16:48:30.780Z,4.00
2018-07-12T16:51:00.041Z,4.73
2018-07-12T16:53:29.589Z,4.93
2018-07-12T16:55:58.951Z,4.60
2018-07-12T16:58:28.560Z,4.67
2018-07-12T17:00:58.090Z,4.83
2018-07-12T17:03:27.234Z,4.90
2018-07-12T17:05:56.998Z,5.60
2018-07-12T17:08:26.520Z,4.50
2018-07-12T17:10:55.969Z,5.20
2018-07-12T17:13:25.214Z,4.27
2018-07-12T17:15:54.464Z,5.20
2018-07-12T17:18:23.866Z,4.83
2018-07-12T17:20:53.149Z,4.90
2018-07-12T17:23:22.521Z,5.07
2018-07-12T17:25:51.776Z,5.27
2018-07-12T17:28:20.991Z,5.23
2018-07-12T17:30:50.464Z,5.27
2018-07-12T17:33:19.906Z,5.40
2018-07-12T17:35:49.186Z,5.63
2018-07-12T17:38:18.518Z,5.00
2018-07-12T17:40:47.778Z,5.43
2018-07-12T17:43:17.121Z,5.47
2018-07-12T17:45:46.386Z,5.07
2018-07-12T17:48:15.731Z,9.07
2018-07-12T17:50:44.898Z,17.47
2018-07-12T17:53:14.307Z,27.37
2018-07-12T17:55:43.570Z,16.37
2018-07-12T17:58:12.964Z,13.00
2018-07-12T18:00:42.195Z,9.27
2018-07-12T18:03:11.366Z,6.27
2018-07-12T18:05:40.574Z,6.37
2018-07-12T18:08:09.935Z,6.23
2018-07-12T18:10:39.161Z,6.53
2018-07-12T18:13:08.816Z,6.33
2018-07-12T18:15:38.218Z,5.80
2018-07-12T18:18:07.614Z,6.03
2018-07-12T18:20:37.012Z,6.70
2018-07-12T18:23:07.021Z,5.90
2018-07-12T18:25:36.300Z,5.77
2018-07-12T18:28:05.554Z,5.60
2018-07-12T18:30:34.992Z,5.90
2018-07-12T18:33:04.494Z,5.87
2018-07-12T18:35:33.835Z,5.80
2018-07-12T18:38:03.152Z,4.87
2018-07-12T18:40:32.908Z,5.47
2018-07-12T18:43:02.572Z,5.40
2018-07-12T18:45:31.488Z,5.17
2018-07-12T18:48:00.479Z,5.90
2018-07-12T18:50:29.416Z,5.20
2018-07-12T18:52:58.456Z,5.70
2018-07-12T18:55:27.474Z,5.53
2018-07-12T18:57:56.449Z,5.03
2018-07-12T19:00:25.803Z,5.27
2018-07-12T19:02:55.024Z,5.13
2018-07-12T19:05:24.331Z,5.33
2018-07-12T19:07:53.765Z,5.20
2018-07-12T19:10:23.105Z,5.03
2018-07-12T19:12:52.470Z,6.07
2018-07-12T19:15:21.866Z,6.07
2018-07-12T19:17:51.156Z,5.00
2018-07-12T19:20:20.418Z,5.30
2018-07-12T19:22:49.754Z,4.90
2018-07-12T19:25:19.040Z,5.47
2018-07-12T19:27:48.448Z,5.33
2018-07-12T19:30:17.703Z,5.27
2018-07-12T19:32:46.957Z,6.43
2018-07-12T19:35:16.258Z,5.50
2018-07-12T19:37:45.647Z,5.73
2018-07-12T19:40:15.039Z,6.00
2018-07-12T19:42:44.303Z,5.57
2018-07-12T19:45:13.570Z,6.00
2018-07-12T19:47:42.828Z,5.50
2018-07-12T19:50:12.170Z,5.83
2018-07-12T19:52:41.434Z,5.87
2018-07-12T19:55:10.657Z,5.47
2018-07-12T19:57:40.064Z,5.73
2018-07-12T20:00:09.562Z,6.00
2018-07-12T20:02:38.751Z,6.03
2018-07-12T20:05:08.056Z,6.20
2018-07-12T20:07:37.313Z,5.00
2018-07-12T20:10:06.622Z,5.90
2018-07-12T20:12:35.851Z,5.10
2018-07-12T20:15:05.270Z,6.07
2018-07-12T20:17:34.552Z,5.83
2018-07-12T20:20:03.856Z,5.30
2018-07-12T20:22:33.757Z,6.47
2018-07-12T20:25:03.081Z,6.50
2018-07-12T20:27:32.338Z,5.60
2018-07-12T20:30:01.475Z,5.93
2018-07-12T20:32:30.826Z,5.87
2018-07-12T20:35:00.747Z,6.10
2018-07-12T20:37:29.831Z,5.30
2018-07-12T20:39:59.215Z,6.00
2018-07-12T20:42:28.955Z,6.10
2018-07-12T20:44:58.226Z,5.37
2018-07-12T20:47:27.494Z,6.30
2018-07-12T20:49:56.896Z,6.00
2018-07-12T20:52:26.256Z,6.83
2018-07-12T20:54:55.670Z,6.10
2018-07-12T20:57:25.016Z,6.20
2018-07-12T20:59:54.154Z,6.50
2018-07-12T21:02:23.527Z,5.77
2018-07-12T21:04:52.677Z,6.50
2018-07-12T21:07:21.921Z,6.77
2018-07-12T21:09:51.166Z,6.93
2018-07-12T21:12:20.388Z,6.40
2018-07-12T21:14:49.756Z,6.80
2018-07-12T21:17:19.875Z,6.80
2018-07-12T21:19:49.197Z,6.10
2018-07-12T21:22:18.443Z,6.47
2018-07-12T21:24:47.700Z,6.90
2018-07-12T21:27:17.007Z,6.50
2018-07-12T21:29:46.411Z,6.10
2018-07-12T21:32:15.626Z,6.30
2018-07-12T21:34:44.914Z,6.50
2018-07-12T21:37:14.278Z,6.00
2018-07-12T21:39:43.630Z,6.87
2018-07-12T21:42:12.901Z,6.60
2018-07-12T21:44:42.540Z,6.20
2018-07-12T21:47:11.935Z,6.23
2018-07-12T21:49:41.233Z,6.00
2018-07-12T21:52:10.524Z,7.80
2018-07-12T21:54:39.872Z,7.10
2018-07-12T21:57:09.108Z,7.43
2018-07-12T21:59:38.342Z,6.07
2018-07-12T22:02:07.604Z,7.07
2018-07-12T22:04:36.854Z,7.00
2018-07-12T22:08:19.462Z,7.00
2018-07-12T22:10:49.892Z,7.40
2018-07-12T22:13:19.726Z,6.97
2018-07-12T22:15:49.034Z,7.30
2018-07-12T22:18:18.376Z,7.20
2018-07-12T22:20:47.594Z,6.93
2018-07-12T22:23:17.240Z,7.23
2018-07-12T22:25:46.651Z,6.93
2018-07-12T22:28:16.402Z,7.47
2018-07-12T22:30:45.749Z,7.90
2018-07-12T22:33:15.088Z,7.43
2018-07-12T22:35:44.447Z,7.67
2018-07-12T22:38:13.816Z,7.73
2018-07-12T22:40:43.094Z,8.00
2018-07-12T22:43:12.218Z,7.53
2018-07-12T22:45:41.706Z,7.17
2018-07-12T22:48:11.095Z,7.43
2018-07-12T22:50:40.371Z,8.03
2018-07-12T22:53:10.157Z,7.10
2018-07-12T22:55:40.065Z,7.27
2018-07-12T22:58:09.335Z,7.60
2018-07-12T23:00:38.883Z,7.30
2018-07-12T23:03:08.243Z,8.10
2018-07-12T23:05:37.626Z,7.27
2018-07-12T23:08:06.971Z,7.03
2018-07-12T23:10:36.323Z,7.80
2018-07-12T23:13:05.594Z,7.73
2018-07-12T23:15:34.875Z,7.70
2018-07-12T23:18:04.311Z,8.30
2018-07-12T23:20:33.695Z,7.90
2018-07-12T23:23:03.012Z,8.10
2018-07-12T23:25:32.318Z,7.50
2018-07-12T23:28:01.614Z,8.40
2018-07-12T23:30:30.866Z,7.57
2018-07-12T23:33:00.103Z,7.57
2018-07-12T23:35:29.366Z,8.77
2018-07-12T23:37:58.790Z,6.97
2018-07-12T23:40:28.069Z,7.90
2018-07-12T23:42:57.465Z,9.20
2018-07-12T23:45:26.769Z,8.27
2018-07-12T23:47:56.093Z,8.00
2018-07-12T23:50:25.396Z,8.30
2018-07-12T23:52:54.791Z,8.70
2018-07-12T23:55:24.175Z,8.07
2018-07-12T23:57:53.406Z,8.07
